sensor_id;sensor_type;location;lat;lon;timestamp;pressure;altitude;pressure_sealevel;temperature;humidity
63512;BME280;49666;52.030;8.884;2023-12-20T00:01:34;99964.63;;;7.69;86.41
63512;BME280;49666;52.030;8.884;2023-12-20T00:04:00;99968.31;;;7.65;86.37
63512;BME280;49666;52.030;8.884;2023-12-20T00:06:25;99963.47;;;7.61;86.19
63512;BME280;49666;52.030;8.884;2023-12-20T00:08:50;99961.31;;;7.58;85.99
63512;BME280;49666;52.030;8.884;2023-12-20T00:11:16;99958.41;;;7.55;86.03
63512;BME280;49666;52.030;8.884;2023-12-20T00:13:41;99951.47;;;7.49;85.97
63512;BME280;49666;52.030;8.884;2023-12-20T00:16:06;99954.63;;;7.42;85.57
63512;BME280;49666;52.030;8.884;2023-12-20T00:18:32;99957.78;;;7.35;85.39
63512;BME280;49666;52.030;8.884;2023-12-20T00:20:57;99959.00;;;7.29;85.42
63512;BME280;49666;52.030;8.884;2023-12-20T00:23:23;99958.31;;;7.23;85.48
63512;BME280;49666;52.030;8.884;2023-12-20T00:25:48;99972.38;;;7.17;85.27
63512;BME280;49666;52.030;8.884;2023-12-20T00:28:14;99982.44;;;7.07;84.92
63512;BME280;49666;52.030;8.884;2023-12-20T00:30:39;99983.66;;;7.01;85.24
63512;BME280;49666;52.030;8.884;2023-12-20T00:33:04;99984.25;;;6.98;85.34
63512;BME280;49666;52.030;8.884;2023-12-20T00:35:30;99981.84;;;6.97;85.68
63512;BME280;49666;52.030;8.884;2023-12-20T00:37:55;99985.38;;;6.97;86.00
63512;BME280;49666;52.030;8.884;2023-12-20T00:40:20;99986.97;;;6.98;86.12
63512;BME280;49666;52.030;8.884;2023-12-20T00:42:46;99984.78;;;7.00;86.39
63512;BME280;49666;52.030;8.884;2023-12-20T00:45:12;99987.69;;;7.04;86.77
63512;BME280;49666;52.030;8.884;2023-12-20T00:47:37;99983.53;;;7.06;86.78
63512;BME280;49666;52.030;8.884;2023-12-20T00:50:03;99982.44;;;7.07;86.71
63512;BME280;49666;52.030;8.884;2023-12-20T00:52:28;99976.34;;;7.10;86.80
63512;BME280;49666;52.030;8.884;2023-12-20T00:54:53;99980.41;;;7.13;86.93
63512;BME280;49666;52.030;8.884;2023-12-20T00:57:19;99982.50;;;7.16;87.11
63512;BME280;49666;52.030;8.884;2023-12-20T00:59:44;99982.41;;;7.21;87.05
63512;BME280;49666;52.030;8.884;2023-12-20T01:02:09;99986.44;;;7.24;86.95
63512;BME280;49666;52.030;8.884;2023-12-20T01:04:35;99983.09;;;7.27;86.93
63512;BME280;49666;52.030;8.884;2023-12-20T01:07:00;99982.81;;;7.28;86.89
63512;BME280;49666;52.030;8.884;2023-12-20T01:09:25;99981.50;;;7.26;86.66
63512;BME280;49666;52.030;8.884;2023-12-20T01:11:53;99982.91;;;7.23;86.57
63512;BME280;49666;52.030;8.884;2023-12-20T01:14:19;99991.41;;;7.22;86.36
63512;BME280;49666;52.030;8.884;2023-12-20T01:16:44;99990.91;;;7.20;86.35
63512;BME280;49666;52.030;8.884;2023-12-20T01:19:10;99978.16;;;7.15;85.92
63512;BME280;49666;52.030;8.884;2023-12-20T01:21:35;99984.84;;;7.09;85.75
63512;BME280;49666;52.030;8.884;2023-12-20T01:24:01;99983.34;;;7.03;85.70
63512;BME280;49666;52.030;8.884;2023-12-20T01:26:26;99991.97;;;6.96;85.51
63512;BME280;49666;52.030;8.884;2023-12-20T01:28:51;99992.06;;;6.91;85.02
63512;BME280;49666;52.030;8.884;2023-12-20T01:31:16;99999.56;;;6.85;85.16
63512;BME280;49666;52.030;8.884;2023-12-20T01:33:42;99998.25;;;6.83;85.22
63512;BME280;49666;52.030;8.884;2023-12-20T01:36:07;100003.72;;;6.83;85.52
63512;BME280;49666;52.030;8.884;2023-12-20T01:38:33;100002.56;;;6.84;85.91
63512;BME280;49666;52.030;8.884;2023-12-20T01:40:58;100004.19;;;6.85;86.10
63512;BME280;49666;52.030;8.884;2023-12-20T01:43:24;99988.34;;;6.87;86.14
63512;BME280;49666;52.030;8.884;2023-12-20T01:45:49;100002.00;;;6.87;86.17
63512;BME280;49666;52.030;8.884;2023-12-20T01:48:15;100006.31;;;6.88;86.18
63512;BME280;49666;52.030;8.884;2023-12-20T01:50:41;100009.88;;;6.88;86.31
63512;BME280;49666;52.030;8.884;2023-12-20T01:53:09;100011.47;;;6.89;86.21
63512;BME280;49666;52.030;8.884;2023-12-20T01:55:39;100010.34;;;6.90;86.17
63512;BME280;49666;52.030;8.884;2023-12-20T01:58:05;100012.78;;;6.92;86.14
63512;BME280;49666;52.030;8.884;2023-12-20T02:00:31;100016.03;;;6.94;86.40
63512;BME280;49666;52.030;8.884;2023-12-20T02:03:00;100010.56;;;6.94;86.58
63512;BME280;49666;52.030;8.884;2023-12-20T02:05:26;100009.56;;;6.90;85.96
63512;BME280;49666;52.030;8.884;2023-12-20T02:07:53;100002.28;;;6.85;85.71
63512;BME280;49666;52.030;8.884;2023-12-20T02:10:18;100007.22;;;6.83;85.59
63512;BME280;49666;52.030;8.884;2023-12-20T02:12:44;99995.00;;;6.81;85.64
63512;BME280;49666;52.030;8.884;2023-12-20T02:15:09;99993.19;;;6.76;85.24
63512;BME280;49666;52.030;8.884;2023-12-20T02:17:36;99985.41;;;6.69;85.19
63512;BME280;49666;52.030;8.884;2023-12-20T02:20:01;99979.22;;;6.64;84.90
63512;BME280;49666;52.030;8.884;2023-12-20T02:22:27;99976.63;;;6.58;85.09
63512;BME280;49666;52.030;8.884;2023-12-20T02:24:53;99983.50;;;6.56;84.83
63512;BME280;49666;52.030;8.884;2023-12-20T02:27:19;99992.38;;;6.48;84.61
63512;BME280;49666;52.030;8.884;2023-12-20T02:29:47;99985.72;;;6.40;84.53
63512;BME280;49666;52.030;8.884;2023-12-20T02:32:12;99990.94;;;6.36;84.56
63512;BME280;49666;52.030;8.884;2023-12-20T02:34:38;99977.59;;;6.35;84.75
63512;BME280;49666;52.030;8.884;2023-12-20T02:37:03;99978.31;;;6.27;84.71
63512;BME280;49666;52.030;8.884;2023-12-20T02:39:28;99990.22;;;6.17;84.15
63512;BME280;49666;52.030;8.884;2023-12-20T02:41:54;99995.25;;;6.10;84.42
63512;BME280;49666;52.030;8.884;2023-12-20T02:44:19;99995.25;;;6.10;84.64
63512;BME280;49666;52.030;8.884;2023-12-20T02:46:44;99987.56;;;6.12;85.25
63512;BME280;49666;52.030;8.884;2023-12-20T02:49:10;99983.75;;;6.13;85.63
63512;BME280;49666;52.030;8.884;2023-12-20T02:51:35;99986.47;;;6.13;85.75
63512;BME280;49666;52.030;8.884;2023-12-20T02:54:03;99985.44;;;6.09;85.39
63512;BME280;49666;52.030;8.884;2023-12-20T02:56:29;99970.09;;;5.99;84.76
63512;BME280;49666;52.030;8.884;2023-12-20T02:58:54;99969.72;;;5.86;84.00
63512;BME280;49666;52.030;8.884;2023-12-20T03:01:19;99974.34;;;5.72;83.38
63512;BME280;49666;52.030;8.884;2023-12-20T03:03:45;99971.78;;;5.62;83.32
63512;BME280;49666;52.030;8.884;2023-12-20T03:06:10;99975.47;;;5.52;83.29
63512;BME280;49666;52.030;8.884;2023-12-20T03:08:35;99959.56;;;5.40;83.18
63512;BME280;49666;52.030;8.884;2023-12-20T03:11:01;99963.78;;;5.32;83.34
63512;BME280;49666;52.030;8.884;2023-12-20T03:13:26;99958.69;;;5.26;83.47
63512;BME280;49666;52.030;8.884;2023-12-20T03:15:51;99956.25;;;5.24;84.27
63512;BME280;49666;52.030;8.884;2023-12-20T03:18:17;99958.69;;;5.26;84.65
63512;BME280;49666;52.030;8.884;2023-12-20T03:20:43;99958.13;;;5.29;84.97
63512;BME280;49666;52.030;8.884;2023-12-20T03:23:08;99955.91;;;5.31;85.49
63512;BME280;49666;52.030;8.884;2023-12-20T03:25:34;99954.22;;;5.35;85.55
63512;BME280;49666;52.030;8.884;2023-12-20T03:27:59;99960.88;;;5.43;86.11
63512;BME280;49666;52.030;8.884;2023-12-20T03:30:25;99958.81;;;5.53;86.44
63512;BME280;49666;52.030;8.884;2023-12-20T03:32:50;99952.41;;;5.63;86.85
63512;BME280;49666;52.030;8.884;2023-12-20T03:35:15;99962.91;;;5.70;86.84
63512;BME280;49666;52.030;8.884;2023-12-20T03:37:41;99962.22;;;5.78;87.22
63512;BME280;49666;52.030;8.884;2023-12-20T03:40:06;99954.97;;;5.87;87.14
63512;BME280;49666;52.030;8.884;2023-12-20T03:42:31;99957.31;;;5.94;87.14
63512;BME280;49666;52.030;8.884;2023-12-20T03:44:57;99956.97;;;6.01;87.22
63512;BME280;49666;52.030;8.884;2023-12-20T03:47:22;99954.16;;;6.06;87.35
63512;BME280;49666;52.030;8.884;2023-12-20T03:49:47;99952.13;;;6.12;87.23
63512;BME280;49666;52.030;8.884;2023-12-20T03:52:13;99943.34;;;6.15;86.68
63512;BME280;49666;52.030;8.884;2023-12-20T03:54:38;99940.84;;;6.18;86.71
63512;BME280;49666;52.030;8.884;2023-12-20T03:57:04;99942.97;;;6.21;86.89
63512;BME280;49666;52.030;8.884;2023-12-20T03:59:30;99949.22;;;6.22;86.74
63512;BME280;49666;52.030;8.884;2023-12-20T04:01:55;99939.44;;;6.21;86.52
63512;BME280;49666;52.030;8.884;2023-12-20T04:04:20;99950.13;;;6.17;86.32
63512;BME280;49666;52.030;8.884;2023-12-20T04:06:46;99943.88;;;6.17;86.16
63512;BME280;49666;52.030;8.884;2023-12-20T04:09:11;99938.41;;;6.17;86.12
63512;BME280;49666;52.030;8.884;2023-12-20T04:11:37;99944.66;;;6.17;86.28
63512;BME280;49666;52.030;8.884;2023-12-20T04:14:02;99954.78;;;6.17;86.18
63512;BME280;49666;52.030;8.884;2023-12-20T04:16:30;99944.66;;;6.17;86.20
63512;BME280;49666;52.030;8.884;2023-12-20T04:18:55;99946.78;;;6.20;86.26
63512;BME280;49666;52.030;8.884;2023-12-20T04:21:20;99941.03;;;6.22;86.61
63512;BME280;49666;52.030;8.884;2023-12-20T04:23:45;99935.31;;;6.23;86.60
63512;BME280;49666;52.030;8.884;2023-12-20T04:26:11;99935.56;;;6.22;86.43
63512;BME280;49666;52.030;8.884;2023-12-20T04:28:36;99935.56;;;6.22;86.43
63512;BME280;49666;52.030;8.884;2023-12-20T04:31:01;99936.41;;;6.22;86.34
63512;BME280;49666;52.030;8.884;2023-12-20T04:33:27;99933.16;;;6.20;86.13
63512;BME280;49666;52.030;8.884;2023-12-20T04:35:52;99936.19;;;6.19;86.18
63512;BME280;49666;52.030;8.884;2023-12-20T04:38:17;99937.31;;;6.18;86.23
63512;BME280;49666;52.030;8.884;2023-12-20T04:40:42;99932.66;;;6.18;85.96
63512;BME280;49666;52.030;8.884;2023-12-20T04:43:08;99945.19;;;6.19;86.34
63512;BME280;49666;52.030;8.884;2023-12-20T04:45:34;99939.44;;;6.21;86.33
63512;BME280;49666;52.030;8.884;2023-12-20T04:47:59;99934.47;;;6.23;86.42
63512;BME280;49666;52.030;8.884;2023-12-20T04:50:24;99934.19;;;6.24;86.43
63512;BME280;49666;52.030;8.884;2023-12-20T04:52:50;99939.31;;;6.26;86.44
63512;BME280;49666;52.030;8.884;2023-12-20T04:55:16;99936.59;;;6.26;86.60
63512;BME280;49666;52.030;8.884;2023-12-20T04:57:41;99938.22;;;6.27;86.24
63512;BME280;49666;52.030;8.884;2023-12-20T05:00:08;99931.97;;;6.27;86.23
63512;BME280;49666;52.030;8.884;2023-12-20T05:02:36;99927.81;;;6.29;86.32
63512;BME280;49666;52.030;8.884;2023-12-20T05:05:02;99929.75;;;6.29;86.43
63512;BME280;49666;52.030;8.884;2023-12-20T05:07:27;99932.16;;;6.30;86.36
63512;BME280;49666;52.030;8.884;2023-12-20T05:09:52;99940.03;;;6.32;86.47
63512;BME280;49666;52.030;8.884;2023-12-20T05:12:18;99938.63;;;6.34;86.61
63512;BME280;49666;52.030;8.884;2023-12-20T05:14:44;99916.81;;;6.34;86.66
63512;BME280;49666;52.030;8.884;2023-12-20T05:17:09;99914.88;;;6.35;86.53
63512;BME280;49666;52.030;8.884;2023-12-20T05:19:34;99929.03;;;6.37;86.35
63512;BME280;49666;52.030;8.884;2023-12-20T05:22:01;99918.94;;;6.37;86.54
63512;BME280;49666;52.030;8.884;2023-12-20T05:24:27;99919.75;;;6.38;86.37
63512;BME280;49666;52.030;8.884;2023-12-20T05:26:52;99918.63;;;6.39;86.14
63512;BME280;49666;52.030;8.884;2023-12-20T05:29:17;99918.63;;;6.39;86.52
63512;BME280;49666;52.030;8.884;2023-12-20T05:31:43;99914.00;;;6.39;86.29
63512;BME280;49666;52.030;8.884;2023-12-20T05:34:08;99916.41;;;6.41;86.31
63512;BME280;49666;52.030;8.884;2023-12-20T05:36:33;99909.81;;;6.42;86.21
63512;BME280;49666;52.030;8.884;2023-12-20T05:38:59;99907.94;;;6.43;86.24
63512;BME280;49666;52.030;8.884;2023-12-20T05:41:24;99903.56;;;6.41;86.16
63512;BME280;49666;52.030;8.884;2023-12-20T05:43:49;99915.28;;;6.42;86.35
63512;BME280;49666;52.030;8.884;2023-12-20T05:46:15;99918.00;;;6.42;86.02
63512;BME280;49666;52.030;8.884;2023-12-20T05:48:40;99924.28;;;6.43;86.32
63512;BME280;49666;52.030;8.884;2023-12-20T05:51:05;99920.75;;;6.42;86.01
63512;BME280;49666;52.030;8.884;2023-12-20T05:53:31;99919.16;;;6.41;86.34
63512;BME280;49666;52.030;8.884;2023-12-20T05:55:56;99924.91;;;6.39;86.03
63512;BME280;49666;52.030;8.884;2023-12-20T05:58:21;99911.25;;;6.39;86.20
63512;BME280;49666;52.030;8.884;2023-12-20T06:00:47;99928.72;;;6.38;86.10
63512;BME280;49666;52.030;8.884;2023-12-20T06:03:13;99929.53;;;6.39;86.08
63512;BME280;49666;52.030;8.884;2023-12-20T06:05:39;99926.81;;;6.39;86.31
63512;BME280;49666;52.030;8.884;2023-12-20T06:08:04;99919.22;;;6.36;86.16
63512;BME280;49666;52.030;8.884;2023-12-20T06:10:30;99937.84;;;6.34;86.13
63512;BME280;49666;52.030;8.884;2023-12-20T06:12:55;99930.25;;;6.31;86.08
63512;BME280;49666;52.030;8.884;2023-12-20T06:15:21;99943.69;;;6.27;86.14
63512;BME280;49666;52.030;8.884;2023-12-20T06:17:47;99929.84;;;6.23;86.11
63512;BME280;49666;52.030;8.884;2023-12-20T06:20:12;99936.72;;;6.21;86.28
63512;BME280;49666;52.030;8.884;2023-12-20T06:22:38;99932.16;;;6.16;86.22
63512;BME280;49666;52.030;8.884;2023-12-20T06:25:04;99946.91;;;6.15;86.42
63512;BME280;49666;52.030;8.884;2023-12-20T06:27:29;99932.44;;;6.15;86.39
63512;BME280;49666;52.030;8.884;2023-12-20T06:29:55;99935.16;;;6.15;86.44
63512;BME280;49666;52.030;8.884;2023-12-20T06:32:21;99936.78;;;6.16;86.49
63512;BME280;49666;52.030;8.884;2023-12-20T06:34:48;99943.88;;;6.17;86.60
63512;BME280;49666;52.030;8.884;2023-12-20T06:37:13;99944.66;;;6.17;86.57
63512;BME280;49666;52.030;8.884;2023-12-20T06:39:40;99941.66;;;6.19;86.56
63512;BME280;49666;52.030;8.884;2023-12-20T06:42:05;99945.19;;;6.19;86.60
63512;BME280;49666;52.030;8.884;2023-12-20T06:44:31;99936.72;;;6.21;86.57
63512;BME280;49666;52.030;8.884;2023-12-20T06:46:56;99935.31;;;6.23;86.71
63512;BME280;49666;52.030;8.884;2023-12-20T06:49:22;99939.63;;;6.24;86.61
63512;BME280;49666;52.030;8.884;2023-12-20T06:51:47;99929.53;;;6.25;86.69
63512;BME280;49666;52.030;8.884;2023-12-20T06:54:13;99922.16;;;6.26;86.50
63512;BME280;49666;52.030;8.884;2023-12-20T06:56:38;99924.59;;;6.27;86.24
63512;BME280;49666;52.030;8.884;2023-12-20T06:59:03;99917.19;;;6.28;86.25
63512;BME280;49666;52.030;8.884;2023-12-20T07:01:29;99919.94;;;6.28;86.32
63512;BME280;49666;52.030;8.884;2023-12-20T07:03:54;99910.16;;;6.27;86.06
63512;BME280;49666;52.030;8.884;2023-12-20T07:06:19;99911.25;;;6.26;86.06
63512;BME280;49666;52.030;8.884;2023-12-20T07:08:45;99915.91;;;6.25;86.23
63512;BME280;49666;52.030;8.884;2023-12-20T07:11:11;99914.78;;;6.26;86.23
63512;BME280;49666;52.030;8.884;2023-12-20T07:13:36;99905.00;;;6.25;86.28
63512;BME280;49666;52.030;8.884;2023-12-20T07:16:02;99917.50;;;6.26;86.50
63512;BME280;49666;52.030;8.884;2023-12-20T07:18:28;99906.59;;;6.26;86.35
63512;BME280;49666;52.030;8.884;2023-12-20T07:20:53;99898.41;;;6.26;86.28
63512;BME280;49666;52.030;8.884;2023-12-20T07:23:19;99900.34;;;6.26;86.05
63512;BME280;49666;52.030;8.884;2023-12-20T07:25:45;99901.97;;;6.27;86.16
63512;BME280;49666;52.030;8.884;2023-12-20T07:28:10;99903.38;;;6.24;86.01
63512;BME280;49666;52.030;8.884;2023-12-20T07:30:36;99912.34;;;6.24;86.11
63512;BME280;49666;52.030;8.884;2023-12-20T07:33:02;99909.94;;;6.23;85.84
63512;BME280;49666;52.030;8.884;2023-12-20T07:35:28;99909.94;;;6.23;86.30
63512;BME280;49666;52.030;8.884;2023-12-20T07:37:53;99895.19;;;6.24;86.13
63512;BME280;49666;52.030;8.884;2023-12-20T07:40:18;99905.59;;;6.22;85.89
63512;BME280;49666;52.030;8.884;2023-12-20T07:42:44;99904.00;;;6.21;85.51
63512;BME280;49666;52.030;8.884;2023-12-20T07:45:09;99908.63;;;6.20;85.85
63512;BME280;49666;52.030;8.884;2023-12-20T07:47:35;99908.31;;;6.22;86.16
63512;BME280;49666;52.030;8.884;2023-12-20T07:50:01;99906.72;;;6.21;86.11
63512;BME280;49666;52.030;8.884;2023-12-20T07:52:29;99893.09;;;6.21;85.76
63512;BME280;49666;52.030;8.884;2023-12-20T07:54:54;99904.47;;;6.23;86.10
63512;BME280;49666;52.030;8.884;2023-12-20T07:57:20;99905.31;;;6.23;86.32
63512;BME280;49666;52.030;8.884;2023-12-20T07:59:45;99911.56;;;6.24;85.91
63512;BME280;49666;52.030;8.884;2023-12-20T08:02:11;99918.66;;;6.25;86.27
63512;BME280;49666;52.030;8.884;2023-12-20T08:04:36;99905.81;;;6.26;86.42
63512;BME280;49666;52.030;8.884;2023-12-20T08:07:01;99913.19;;;6.25;86.14
63512;BME280;49666;52.030;8.884;2023-12-20T08:09:27;99912.88;;;6.27;86.04
63512;BME280;49666;52.030;8.884;2023-12-20T08:11:52;99903.06;;;6.26;85.85
63512;BME280;49666;52.030;8.884;2023-12-20T08:14:17;99906.59;;;6.26;86.32
63512;BME280;49666;52.030;8.884;2023-12-20T08:16:43;99908.22;;;6.27;85.96
63512;BME280;49666;52.030;8.884;2023-12-20T08:19:08;99904.41;;;6.28;85.85
63512;BME280;49666;52.030;8.884;2023-12-20T08:21:34;99897.53;;;6.31;85.85
63512;BME280;49666;52.030;8.884;2023-12-20T08:23:59;99898.03;;;6.33;86.13
63512;BME280;49666;52.030;8.884;2023-12-20T08:26:25;99904.78;;;6.35;86.08
63512;BME280;49666;52.030;8.884;2023-12-20T08:28:51;99895.22;;;6.38;86.04
63512;BME280;49666;52.030;8.884;2023-12-20T08:31:17;99888.31;;;6.40;86.11
63512;BME280;49666;52.030;8.884;2023-12-20T08:33:47;99897.19;;;6.46;86.24
63512;BME280;49666;52.030;8.884;2023-12-20T08:36:12;99896.59;;;6.49;86.43
63512;BME280;49666;52.030;8.884;2023-12-20T08:38:38;99891.03;;;6.54;86.23
63512;BME280;49666;52.030;8.884;2023-12-20T08:41:03;99875.97;;;6.57;86.06
63512;BME280;49666;52.030;8.884;2023-12-20T08:43:39;99875.38;;;6.60;86.06
63512;BME280;49666;52.030;8.884;2023-12-20T08:46:05;99874.56;;;6.59;85.96
63512;BME280;49666;52.030;8.884;2023-12-20T08:48:31;99861.25;;;6.58;85.74
63512;BME280;49666;52.030;8.884;2023-12-20T08:50:56;99878.41;;;6.58;85.64
63512;BME280;49666;52.030;8.884;2023-12-20T08:53:21;99870.53;;;6.57;85.24
63512;BME280;49666;52.030;8.884;2023-12-20T08:55:47;99862.81;;;6.59;85.74
63512;BME280;49666;52.030;8.884;2023-12-20T08:58:13;99877.59;;;6.58;85.86
63512;BME280;49666;52.030;8.884;2023-12-20T09:00:38;99889.00;;;6.60;85.82
63512;BME280;49666;52.030;8.884;2023-12-20T09:03:04;99873.44;;;6.61;86.11
63512;BME280;49666;52.030;8.884;2023-12-20T09:05:29;99872.03;;;6.63;85.82
63512;BME280;49666;52.030;8.884;2023-12-20T09:07:55;99873.13;;;6.62;85.50
63512;BME280;49666;52.030;8.884;2023-12-20T09:10:20;99863.84;;;6.63;85.96
63512;BME280;49666;52.030;8.884;2023-12-20T09:12:51;99860.00;;;6.64;85.76
63512;BME280;49666;52.030;8.884;2023-12-20T09:15:18;99841.22;;;6.63;85.91
63512;BME280;49666;52.030;8.884;2023-12-20T09:17:43;99852.44;;;6.61;85.84
63512;BME280;49666;52.030;8.884;2023-12-20T09:20:09;99841.53;;;6.61;85.93
63512;BME280;49666;52.030;8.884;2023-12-20T09:22:35;99837.66;;;6.62;85.78
63512;BME280;49666;52.030;8.884;2023-12-20T09:25:00;99833.66;;;6.59;85.71
63512;BME280;49666;52.030;8.884;2023-12-20T09:27:27;99825.16;;;6.61;86.24
63512;BME280;49666;52.030;8.884;2023-12-20T09:29:52;99822.44;;;6.61;85.98
63512;BME280;49666;52.030;8.884;2023-12-20T09:32:18;99818.38;;;6.58;86.07
63512;BME280;49666;52.030;8.884;2023-12-20T09:34:45;99820.31;;;6.58;86.06
63512;BME280;49666;52.030;8.884;2023-12-20T09:37:11;99811.00;;;6.59;86.07
63512;BME280;49666;52.030;8.884;2023-12-20T09:39:36;99820.50;;;6.62;86.28
63512;BME280;49666;52.030;8.884;2023-12-20T09:42:03;99816.53;;;6.68;86.53
63512;BME280;49666;52.030;8.884;2023-12-20T09:44:30;99810.84;;;6.78;86.92
63512;BME280;49666;52.030;8.884;2023-12-20T09:46:56;99813.13;;;6.85;86.96
63512;BME280;49666;52.030;8.884;2023-12-20T09:49:22;99799.56;;;6.93;86.96
63512;BME280;49666;52.030;8.884;2023-12-20T09:51:50;99808.94;;;7.01;86.75
63512;BME280;49666;52.030;8.884;2023-12-20T09:54:19;99814.25;;;7.06;87.00
63512;BME280;49666;52.030;8.884;2023-12-20T09:56:45;99796.44;;;7.09;87.17
63512;BME280;49666;52.030;8.884;2023-12-20T09:59:11;99798.38;;;7.08;86.68
63512;BME280;49666;52.030;8.884;2023-12-20T10:01:38;99801.75;;;7.05;86.45
63512;BME280;49666;52.030;8.884;2023-12-20T10:04:08;99809.75;;;7.02;86.38
63512;BME280;49666;52.030;8.884;2023-12-20T10:06:52;99811.97;;;7.00;86.23
63512;BME280;49666;52.030;8.884;2023-12-20T10:09:17;99813.41;;;6.97;86.02
63512;BME280;49666;52.030;8.884;2023-12-20T10:11:44;99811.78;;;6.96;86.06
63512;BME280;49666;52.030;8.884;2023-12-20T10:14:10;99811.78;;;6.96;86.30
63512;BME280;49666;52.030;8.884;2023-12-20T10:16:36;99804.38;;;6.97;86.15
63512;BME280;49666;52.030;8.884;2023-12-20T10:19:01;99807.31;;;7.00;86.35
63512;BME280;49666;52.030;8.884;2023-12-20T10:21:27;99798.50;;;7.03;86.38
63512;BME280;49666;52.030;8.884;2023-12-20T10:23:58;99779.59;;;7.07;86.33
63512;BME280;49666;52.030;8.884;2023-12-20T10:26:26;99785.53;;;7.09;86.53
63512;BME280;49666;52.030;8.884;2023-12-20T10:28:59;99787.63;;;7.12;86.49
63512;BME280;49666;52.030;8.884;2023-12-20T10:31:32;99790.25;;;7.17;86.44
63512;BME280;49666;52.030;8.884;2023-12-20T10:33:59;99782.84;;;7.18;86.35
63512;BME280;49666;52.030;8.884;2023-12-20T10:36:26;99780.91;;;7.18;86.29
63512;BME280;49666;52.030;8.884;2023-12-20T10:38:52;99783.16;;;7.16;86.24
63512;BME280;49666;52.030;8.884;2023-12-20T10:41:28;99762.44;;;7.15;86.05
63512;BME280;49666;52.030;8.884;2023-12-20T10:44:04;99779.75;;;7.10;86.20
63512;BME280;49666;52.030;8.884;2023-12-20T10:46:33;99763.81;;;7.04;85.91
63512;BME280;49666;52.030;8.884;2023-12-20T10:48:59;99773.44;;;7.01;85.83
63512;BME280;49666;52.030;8.884;2023-12-20T10:51:25;99784.06;;;7.03;86.37
63512;BME280;49666;52.030;8.884;2023-12-20T10:53:55;99779.06;;;7.05;86.58
63512;BME280;49666;52.030;8.884;2023-12-20T10:56:21;99781.50;;;7.06;86.80
63512;BME280;49666;52.030;8.884;2023-12-20T10:58:49;99772.50;;;7.06;86.67
63512;BME280;49666;52.030;8.884;2023-12-20T11:01:16;99782.63;;;7.05;86.72
63512;BME280;49666;52.030;8.884;2023-12-20T11:03:48;99774.25;;;7.02;86.61
63512;BME280;49666;52.030;8.884;2023-12-20T11:09:10;99777.22;;;6.91;86.44
63512;BME280;49666;52.030;8.884;2023-12-20T11:12:06;99786.03;;;6.88;86.67
63512;BME280;49666;52.030;8.884;2023-12-20T11:17:11;99783.50;;;6.92;86.95
63512;BME280;49666;52.030;8.884;2023-12-20T11:22:25;99776.50;;;7.00;87.03
63512;BME280;49666;52.030;8.884;2023-12-20T11:24:52;99769.25;;;7.04;87.01
63512;BME280;49666;52.030;8.884;2023-12-20T11:27:19;99753.09;;;7.07;87.09
63512;BME280;49666;52.030;8.884;2023-12-20T11:29:54;99760.00;;;7.14;87.19
63512;BME280;49666;52.030;8.884;2023-12-20T11:34:53;99769.81;;;7.37;87.45
63512;BME280;49666;52.030;8.884;2023-12-20T11:37:20;99771.91;;;7.40;87.51
63512;BME280;49666;52.030;8.884;2023-12-20T11:39:45;99764.19;;;7.42;87.26
63512;BME280;49666;52.030;8.884;2023-12-20T11:42:10;99752.16;;;7.43;87.10
63512;BME280;49666;52.030;8.884;2023-12-20T11:44:37;99764.22;;;7.51;87.46
63512;BME280;49666;52.030;8.884;2023-12-20T11:47:03;99756.38;;;7.58;87.60
63512;BME280;49666;52.030;8.884;2023-12-20T11:49:28;99747.41;;;7.67;87.46
63512;BME280;49666;52.030;8.884;2023-12-20T11:51:56;99755.81;;;7.70;87.35
63512;BME280;49666;52.030;8.884;2023-12-20T11:54:22;99747.41;;;7.67;86.97
63512;BME280;49666;52.030;8.884;2023-12-20T11:56:48;99743.22;;;7.60;86.15
63512;BME280;49666;52.030;8.884;2023-12-20T11:59:13;99752.38;;;7.56;86.46
63512;BME280;49666;52.030;8.884;2023-12-20T12:01:39;99748.66;;;7.52;86.29
63512;BME280;49666;52.030;8.884;2023-12-20T12:04:07;99740.59;;;7.46;86.25
63512;BME280;49666;52.030;8.884;2023-12-20T12:06:33;99733.22;;;7.47;86.34
63512;BME280;49666;52.030;8.884;2023-12-20T12:08:59;99737.84;;;7.46;86.44
63512;BME280;49666;52.030;8.884;2023-12-20T12:11:24;99734.63;;;7.44;86.66
63512;BME280;49666;52.030;8.884;2023-12-20T12:13:50;99729.81;;;7.41;85.94
63512;BME280;49666;52.030;8.884;2023-12-20T12:16:19;99724.94;;;7.38;85.98
63512;BME280;49666;52.030;8.884;2023-12-20T12:18:45;99734.59;;;7.36;85.97
63512;BME280;49666;52.030;8.884;2023-12-20T12:21:10;99724.78;;;7.35;85.74
63512;BME280;49666;52.030;8.884;2023-12-20T12:23:43;99727.84;;;7.33;85.54
63512;BME280;49666;52.030;8.884;2023-12-20T12:26:08;99721.59;;;7.33;86.20
63512;BME280;49666;52.030;8.884;2023-12-20T12:28:34;99728.63;;;7.34;86.01
63512;BME280;49666;52.030;8.884;2023-12-20T12:31:00;99720.75;;;7.32;86.01
63512;BME280;49666;52.030;8.884;2023-12-20T12:33:26;99726.22;;;7.32;86.02
63512;BME280;49666;52.030;8.884;2023-12-20T12:35:52;99724.91;;;7.29;85.95
63512;BME280;49666;52.030;8.884;2023-12-20T12:38:20;99724.91;;;7.29;85.51
63512;BME280;49666;52.030;8.884;2023-12-20T12:40:46;99719.28;;;7.26;85.67
63512;BME280;49666;52.030;8.884;2023-12-20T12:43:11;99713.84;;;7.26;85.66
63512;BME280;49666;52.030;8.884;2023-12-20T12:45:37;99725.88;;;7.25;85.69
63512;BME280;49666;52.030;8.884;2023-12-20T12:48:03;99706.28;;;7.23;85.61
63512;BME280;49666;52.030;8.884;2023-12-20T12:50:29;99710.13;;;7.22;85.19
63512;BME280;49666;52.030;8.884;2023-12-20T12:52:55;99710.91;;;7.22;85.95
63512;BME280;49666;52.030;8.884;2023-12-20T12:55:20;99710.59;;;7.24;85.85
63512;BME280;49666;52.030;8.884;2023-12-20T12:57:45;99695.81;;;7.25;86.15
63512;BME280;49666;52.030;8.884;2023-12-20T13:00:11;99697.13;;;7.27;86.24
63512;BME280;49666;52.030;8.884;2023-12-20T13:02:37;99705.00;;;7.29;86.27
63512;BME280;49666;52.030;8.884;2023-12-20T13:05:03;99700.03;;;7.31;86.22
63512;BME280;49666;52.030;8.884;2023-12-20T13:07:29;99711.44;;;7.33;86.29
63512;BME280;49666;52.030;8.884;2023-12-20T13:09:55;99712.56;;;7.32;85.99
63512;BME280;49666;52.030;8.884;2023-12-20T13:12:20;99727.66;;;7.29;86.08
63512;BME280;49666;52.030;8.884;2023-12-20T13:14:46;99737.91;;;7.24;85.90